Lake Lure, North Carolina
Current Conditions -  °F | °C
As of 10:35 PM on Saturday 22 Nov 2014 (Local Time) from KFQD Reporting Station
Overcast Overcast  
Wind Chill: 42°   Ceiling: 4500
Heat Index: 42°   Visibility: 10mi
Dew Point: 26°   Wind: 3mph
Humidity: 52%   Direction: 20°NNE
Pressure: 30.32"   Gusts: NA
Location:  35.43°N, 82.2°W
Report Text: KFQD 230335Z AUTO 02003KT 10SM OVC045 06/M03 A3032 RMK AO2 T00581034
Loading
Personal Weather Stations






























Interactive Weather Map New forecast layout! Learn more

10-Day Weather Forecast

Advertisements
Track Severe Weather on mobile